Tropical Cyclones
[Index]
Main Index Home Page Stock Weather Photos Extreme Storms Discussion Storm News and Storm Chasing Reports Tropical Cyclones / Hurricanes / Typhoons Weather Data and Links Wild Fires / Bushfires Weather Observation Techniques Weather Picture Catalogue Tornado Pictures and Reports Stock Video Footage and DVDs for sale
Season 1921-1922 Tropical Cyclone 192122_02 Track Map
Season 1921-1922 Summaries: [BoM-AU]
<<- Previous TC | BoM 1921-1922 Season | Next TC ->>

click for intensity scale information  Lat/long Grid: Show Hide

 Date Labels: Show Hide

Bureau of Meteorology Tropical Cyclone Data

Name: 192122_02
Number: 62 / 192122_02

06 Feb 1922 23:00 UTC to 21 Feb 1922 23:00 UTC

    date/time    lat    long    hPa   cat  kts
1922-02-06 23   19.8   155.7                            
1922-02-07 23   20.0   155.9                            
1922-02-08 23   20.6   156.4                            
1922-02-09 23   21.0   156.6                            
1922-02-10 23   21.3   156.7                            
1922-02-11 23   21.6   156.9                            
1922-02-12 23   22.2   157.0                            
1922-02-13 08   23.3   157.7                            
1922-02-13 23   24.8   159.3                            
1922-02-14 16   27.3   161.3                            
1922-02-14 23   27.6   162.9                            
1922-02-15 11   27.3   163.6                            
1922-02-15 23   26.7   163.8                            
1922-02-16 10   25.8   163.4                            
1922-02-16 23   25.1   162.4                            
1922-02-17 11   24.2   159.8                            
1922-02-17 23   24.1   157.0    995    1                
1922-02-18 23   24.2   152.8                            
1922-02-19 11   23.5   152.0                            
1922-02-19 23   22.5   152.4                            
1922-02-20 08   21.0   154.8                            
1922-02-20 20   19.6   158.4                            
1922-02-20 23   19.6   159.4                            
1922-02-21 09   20.8   161.1                            
1922-02-21 23   23.0   162.8                            
Winds are 10-min average.

Tropical cyclone tracks developed by Michael Bath using data from the Bureau of Meteorology and Google Maps.


[Australian Severe Weather index] [Copyright Notice] [Email Contacts] [Search This Site] [Privacy Policy]
Document: tropical_cyclone_192122_02.htm Updated: 30 May 2013